createdAt,value
2022-08-03T00:01:41.394Z,101511.44
2022-08-03T00:04:08.987Z,101507.66
2022-08-03T00:06:37.239Z,101512.41
2022-08-03T00:09:08.187Z,101502.91
2022-08-03T00:11:35.512Z,101513.28
2022-08-03T00:14:02.190Z,101495.03
2022-08-03T00:16:28.714Z,101502.03
2022-08-03T00:18:55.121Z,101500.81
2022-08-03T00:21:21.452Z,101502.44
2022-08-03T00:23:52.486Z,101501.44
2022-08-03T00:26:20.388Z,101502.41
2022-08-03T00:28:46.743Z,101505.28
2022-08-03T00:31:13.559Z,101494.81
2022-08-03T00:33:59.442Z,101481.59
2022-08-03T00:36:28.249Z,101490.81
2022-08-03T00:38:55.524Z,101490.13
2022-08-03T00:41:22.287Z,101493.25
2022-08-03T00:43:48.931Z,101496.13
2022-08-03T00:46:21.056Z,101498.19
2022-08-03T00:48:52.157Z,101476.78
2022-08-03T00:51:22.901Z,101496.25
2022-08-03T00:53:50.905Z,101500.66
2022-08-03T00:56:17.837Z,101492.03
2022-08-03T00:58:45.759Z,101490.16
2022-08-03T01:01:12.776Z,101479.06
2022-08-03T01:03:39.665Z,101496.69
2022-08-03T01:06:18.718Z,101497.47
2022-08-03T01:09:07.075Z,101491.94
2022-08-03T01:12:00.780Z,101491.94
2022-08-03T01:14:50.268Z,101494.03
2022-08-03T01:17:28.903Z,101488.63
2022-08-03T01:20:09.363Z,101488.38
2022-08-03T01:23:00.577Z,101487.34
2022-08-03T01:25:48.529Z,101485.50
2022-08-03T01:28:53.149Z,101478.00
2022-08-03T01:31:26.285Z,101473.88
2022-08-03T01:34:10.242Z,101477.09
2022-08-03T01:36:48.904Z,101468.97
2022-08-03T01:39:16.854Z,101477.41
2022-08-03T01:42:00.973Z,101484.63
2022-08-03T01:44:31.024Z,101472.78
2022-08-03T01:47:02.194Z,101483.38
2022-08-03T01:49:32.242Z,101482.25
2022-08-03T01:52:04.982Z,101472.59
2022-08-03T01:54:37.696Z,101471.00
2022-08-03T01:57:04.931Z,101476.28
2022-08-03T01:59:34.445Z,101480.53
2022-08-03T02:02:28.663Z,101457.88
2022-08-03T02:04:52.486Z,101475.16
2022-08-03T02:07:19.822Z,101471.69
2022-08-03T02:09:52.594Z,101460.44
2022-08-03T02:12:22.230Z,101480.09
2022-08-03T02:14:49.901Z,101476.53
2022-08-03T02:17:16.751Z,101470.91
2022-08-03T02:19:44.506Z,101471.25
2022-08-03T02:22:12.906Z,101465.38
2022-08-03T02:24:39.513Z,101470.31
2022-08-03T02:27:14.976Z,101475.88
2022-08-03T02:29:44.685Z,101481.47
2022-08-03T02:32:17.458Z,101472.19
2022-08-03T02:34:47.429Z,101468.16
2022-08-03T02:37:14.972Z,101460.66
2022-08-03T02:39:43.857Z,101458.59
2022-08-03T02:42:14.514Z,101456.66
2022-08-03T02:44:42.567Z,101470.00
2022-08-03T02:47:11.722Z,101452.06
2022-08-03T02:49:51.401Z,101452.84
2022-08-03T02:52:21.451Z,101438.94
2022-08-03T02:54:50.903Z,101431.13
2022-08-03T02:57:18.570Z,101449.63
2022-08-03T02:59:45.953Z,101436.19
2022-08-03T03:02:13.382Z,101439.63
2022-08-03T03:04:55.036Z,101443.66
2022-08-03T03:07:27.525Z,101441.47
2022-08-03T03:09:56.230Z,101443.41
2022-08-03T03:12:23.686Z,101442.84
2022-08-03T03:14:50.235Z,101422.72
2022-08-03T03:17:17.473Z,101441.00
2022-08-03T03:19:45.195Z,101441.47
2022-08-03T03:22:13.184Z,101432.50
2022-08-03T03:24:41.626Z,101433.41
2022-08-03T03:27:08.795Z,101451.22
2022-08-03T03:29:39.222Z,101448.69
2022-08-03T03:32:12.432Z,101441.69
2022-08-03T03:34:38.899Z,101453.06
2022-08-03T03:37:05.904Z,101448.78
2022-08-03T03:39:32.470Z,101447.41
2022-08-03T03:42:00.299Z,101430.50
2022-08-03T03:44:28.675Z,101435.78
2022-08-03T03:46:57.377Z,101442.22
2022-08-03T03:49:24.524Z,101421.75
2022-08-03T03:51:55.679Z,101415.34
2022-08-03T03:54:22.482Z,101426.06
2022-08-03T03:57:05.079Z,101424.91
2022-08-03T03:59:31.630Z,101447.59
2022-08-03T04:02:01.758Z,101429.66
2022-08-03T04:04:35.077Z,101417.31
2022-08-03T04:07:01.524Z,101442.44
2022-08-03T04:09:28.054Z,101443.25
2022-08-03T04:11:58.584Z,101439.13
2022-08-03T04:14:35.878Z,101440.28
2022-08-03T04:17:05.097Z,101436.13
2022-08-03T04:19:34.081Z,101433.63
2022-08-03T04:22:05.160Z,101441.91
2022-08-03T04:24:35.110Z,101442.38
2022-08-03T04:27:04.765Z,101451.81
2022-08-03T04:29:34.843Z,101451.69
2022-08-03T04:32:01.221Z,101450.56
2022-08-03T04:34:29.449Z,101452.84
2022-08-03T04:36:59.719Z,101454.13
2022-08-03T04:39:31.555Z,101453.56
2022-08-03T04:42:08.644Z,101456.66
2022-08-03T04:44:41.018Z,101454.47
2022-08-03T04:47:07.478Z,101456.19
2022-08-03T04:49:36.584Z,101459.03
2022-08-03T04:52:04.017Z,101460.28
2022-08-03T04:54:31.276Z,101459.91
2022-08-03T04:56:57.611Z,101456.44
2022-08-03T04:59:23.993Z,101462.25
2022-08-03T05:01:50.397Z,101460.38
2022-08-03T05:04:16.758Z,101457.91
2022-08-03T05:06:48.143Z,101462.91
2022-08-03T05:09:14.861Z,101466.88
2022-08-03T05:11:41.435Z,101463.75
2022-08-03T05:14:07.797Z,101472.03
2022-08-03T05:16:34.222Z,101469.91
2022-08-03T05:19:00.612Z,101476.78
2022-08-03T05:21:26.963Z,101478.22
2022-08-03T05:24:13.313Z,101486.78
2022-08-03T05:26:39.692Z,101477.22
2022-08-03T05:29:06.238Z,101482.50
2022-08-03T05:31:32.607Z,101484.34
2022-08-03T05:33:58.983Z,101479.78
2022-08-03T05:36:25.650Z,101486.75
2022-08-03T05:38:52.017Z,101473.91
2022-08-03T05:41:21.021Z,101475.66
2022-08-03T05:43:54.398Z,101481.78
2022-08-03T05:46:22.259Z,101484.28
2022-08-03T05:48:48.650Z,101487.91
2022-08-03T05:51:15.044Z,101487.25
2022-08-03T05:53:42.906Z,101488.28
2022-08-03T05:56:13.617Z,101489.25
2022-08-03T05:58:43.463Z,101484.06
2022-08-03T06:01:09.912Z,101487.56
2022-08-03T06:03:36.316Z,101491.69
2022-08-03T06:06:02.685Z,101496.88
2022-08-03T06:08:29.089Z,101484.59
2022-08-03T06:10:55.534Z,101487.47
2022-08-03T06:13:21.908Z,101483.53
2022-08-03T06:15:48.266Z,101492.31
2022-08-03T06:18:14.609Z,101486.09
2022-08-03T06:20:40.977Z,101487.94
2022-08-03T06:23:07.972Z,101492.31
2022-08-03T06:25:42.833Z,101494.13
2022-08-03T06:28:15.085Z,101487.84
2022-08-03T06:30:46.032Z,101480.34
2022-08-03T06:33:12.386Z,101484.53
2022-08-03T06:35:38.802Z,101480.84
2022-08-03T06:38:08.824Z,101481.34
2022-08-03T06:40:36.578Z,101486.31
2022-08-03T06:43:03.009Z,101483.91
2022-08-03T06:45:31.734Z,101476.31
2022-08-03T06:48:09.842Z,101491.03
2022-08-03T06:50:38.217Z,101483.31
2022-08-03T06:53:05.372Z,101488.06
2022-08-03T06:55:32.209Z,101497.78
2022-08-03T06:58:03.103Z,101500.00
2022-08-03T07:00:30.350Z,101498.94
2022-08-03T07:02:58.463Z,101492.22
2022-08-03T07:05:25.196Z,101494.38
2022-08-03T07:07:55.202Z,101492.69
2022-08-03T07:10:21.597Z,101495.22
2022-08-03T07:12:56.220Z,101506.31
2022-08-03T07:15:54.182Z,101499.03
2022-08-03T07:18:11.009Z,101501.22
2022-08-03T07:20:37.658Z,101506.56
2022-08-03T07:23:04.059Z,101506.09
2022-08-03T07:25:30.418Z,101510.25
2022-08-03T07:27:56.804Z,101511.09
2022-08-03T07:30:24.644Z,101512.50
2022-08-03T07:32:51.080Z,101512.06
2022-08-03T07:35:24.659Z,101515.78
2022-08-03T07:37:54.599Z,101513.50
2022-08-03T07:40:21.658Z,101511.81
2022-08-03T07:42:48.089Z,101512.50
2022-08-03T07:45:18.682Z,101519.28
2022-08-03T07:47:53.082Z,101513.06
2022-08-03T07:50:20.187Z,101512.25
2022-08-03T07:52:46.589Z,101512.28
2022-08-03T07:55:12.951Z,101510.88
2022-08-03T07:57:39.348Z,101507.94
2022-08-03T08:00:12.487Z,101508.97
2022-08-03T08:02:39.190Z,101509.44
2022-08-03T08:05:06.201Z,101514.09
2022-08-03T08:07:32.885Z,101515.25
2022-08-03T08:09:59.269Z,101508.28
2022-08-03T08:12:25.608Z,101509.88
2022-08-03T08:14:51.977Z,101512.81
2022-08-03T08:17:19.468Z,101503.53
2022-08-03T08:19:51.478Z,101506.31
2022-08-03T08:22:19.075Z,101501.09
2022-08-03T08:24:55.133Z,101499.13
2022-08-03T08:27:21.640Z,101504.44
2022-08-03T08:29:55.324Z,101500.50
2022-08-03T08:32:23.931Z,101502.81
2022-08-03T08:34:50.321Z,101505.78
2022-08-03T08:37:16.709Z,101502.72
2022-08-03T08:39:43.070Z,101509.78
2022-08-03T08:42:10.155Z,101516.97
2022-08-03T08:44:36.615Z,101505.31
2022-08-03T08:47:04.040Z,101506.50
2022-08-03T08:49:32.890Z,101513.63
2022-08-03T08:52:01.394Z,101510.06
2022-08-03T08:54:29.547Z,101510.00
2022-08-03T08:56:58.673Z,101510.72
2022-08-03T08:59:25.492Z,101515.16
2022-08-03T09:01:57.027Z,101503.59
2022-08-03T09:04:23.655Z,101517.06
2022-08-03T09:07:17.683Z,101516.78
2022-08-03T09:10:10.483Z,101516.84
2022-08-03T09:12:41.143Z,101510.63
2022-08-03T09:15:24.899Z,101508.13
2022-08-03T09:17:53.261Z,101508.00
2022-08-03T09:20:21.668Z,101507.97
2022-08-03T09:23:01.406Z,101505.59
2022-08-03T09:25:35.034Z,101507.56
2022-08-03T09:28:52.547Z,101505.16
2022-08-03T09:31:01.632Z,101504.41
2022-08-03T09:33:36.003Z,101509.44
2022-08-03T09:36:02.660Z,101500.13
2022-08-03T09:38:29.024Z,101496.22
2022-08-03T09:41:00.086Z,101503.13
2022-08-03T09:43:27.530Z,101505.00
2022-08-03T09:46:05.814Z,101506.81
2022-08-03T09:48:32.457Z,101497.28
2022-08-03T09:51:13.610Z,101499.19
2022-08-03T09:53:59.007Z,101496.31
2022-08-03T09:56:41.095Z,101489.28
2022-08-03T09:59:07.601Z,101500.13
2022-08-03T10:01:36.350Z,101493.47
2022-08-03T10:04:05.127Z,101496.00
2022-08-03T10:06:32.068Z,101493.34
2022-08-03T10:09:06.709Z,101500.28
2022-08-03T10:11:38.849Z,101494.00
2022-08-03T10:14:10.811Z,101490.69
2022-08-03T10:16:40.180Z,101504.31
2022-08-03T10:19:08.839Z,101488.56
2022-08-03T10:21:38.626Z,101494.09
2022-08-03T10:24:07.284Z,101484.63
2022-08-03T10:26:35.941Z,101489.97
2022-08-03T10:29:07.282Z,101489.88
2022-08-03T10:31:54.753Z,101485.09
2022-08-03T10:34:28.926Z,101482.72
2022-08-03T10:36:59.091Z,101480.00
2022-08-03T10:39:29.513Z,101473.41
2022-08-03T10:41:56.712Z,101475.41
2022-08-03T10:44:25.878Z,101477.91
2022-08-03T10:46:53.143Z,101476.81
2022-08-03T10:49:33.569Z,101479.34
2022-08-03T10:52:02.595Z,101484.81
2022-08-03T10:54:39.252Z,101473.47
2022-08-03T10:57:14.329Z,101471.84
2022-08-03T10:59:47.162Z,101466.31
2022-08-03T11:02:14.883Z,101466.81
2022-08-03T11:04:42.634Z,101469.28
2022-08-03T11:07:23.668Z,101460.31
2022-08-03T11:09:52.482Z,101465.28
2022-08-03T11:12:34.149Z,101454.09
2022-08-03T11:15:03.725Z,101455.00
2022-08-03T11:17:30.339Z,101460.97
2022-08-03T11:19:58.478Z,101458.41
2022-08-03T11:22:25.914Z,101447.72
2022-08-03T11:24:52.178Z,101455.22
2022-08-03T11:27:29.668Z,101451.94
2022-08-03T11:30:00.166Z,101453.19
2022-08-03T11:32:38.924Z,101457.25
2022-08-03T11:35:18.583Z,101454.94
2022-08-03T11:38:03.220Z,101451.50
2022-08-03T11:40:51.020Z,101454.63
2022-08-03T11:43:25.741Z,101446.47
2022-08-03T11:46:05.937Z,101449.66
2022-08-03T11:48:40.191Z,101450.72
2022-08-03T11:51:19.288Z,101457.44
2022-08-03T11:53:45.824Z,101457.88
2022-08-03T11:56:13.009Z,101460.75
2022-08-03T11:59:19.290Z,101453.28
2022-08-03T12:01:37.022Z,101450.56
2022-08-03T12:04:05.180Z,101456.84
2022-08-03T12:06:31.545Z,101454.91
2022-08-03T12:08:57.913Z,101453.84
2022-08-03T12:11:24.397Z,101457.00
2022-08-03T12:14:28.932Z,101462.88
2022-08-03T12:16:37.817Z,101457.81
2022-08-03T12:19:05.661Z,101457.53
2022-08-03T12:21:32.422Z,101455.16
2022-08-03T12:24:04.200Z,101449.28
2022-08-03T12:26:58.433Z,101451.13
2022-08-03T12:29:26.366Z,101447.84
2022-08-03T12:31:52.746Z,101454.00
2022-08-03T12:34:19.112Z,101451.69
2022-08-03T12:36:54.603Z,101446.63
2022-08-03T12:39:25.986Z,101446.63
2022-08-03T12:41:53.426Z,101447.34
2022-08-03T12:44:30.293Z,101456.38
2022-08-03T12:47:00.696Z,101450.25
2022-08-03T12:49:27.264Z,101445.16
2022-08-03T12:51:53.604Z,101445.25
2022-08-03T12:54:24.550Z,101458.50
2022-08-03T12:57:11.284Z,101454.22
2022-08-03T12:59:52.733Z,101451.56
2022-08-03T13:02:26.263Z,101451.59
2022-08-03T13:04:54.245Z,101448.75
2022-08-03T13:07:21.761Z,101447.78
2022-08-03T13:09:53.214Z,101452.75
2022-08-03T13:12:21.506Z,101443.66
2022-08-03T13:14:51.493Z,101448.69
2022-08-03T13:17:18.794Z,101442.50
2022-08-03T13:19:46.492Z,101440.94
2022-08-03T13:22:24.109Z,101447.94
2022-08-03T13:24:55.214Z,101438.56
2022-08-03T13:28:13.953Z,101444.81
2022-08-03T13:30:09.178Z,101449.84
2022-08-03T13:32:35.961Z,101441.94
2022-08-03T13:35:02.567Z,101448.00
2022-08-03T13:37:30.145Z,101442.75
2022-08-03T13:39:58.829Z,101436.44
2022-08-03T13:42:27.865Z,101442.06
2022-08-03T13:44:54.292Z,101429.94
2022-08-03T13:47:21.117Z,101434.84
2022-08-03T13:49:54.246Z,101433.13
2022-08-03T13:52:37.738Z,101437.38
2022-08-03T13:55:05.989Z,101442.75
2022-08-03T13:58:06.580Z,101442.56
2022-08-03T14:00:27.657Z,101440.56
2022-08-03T14:03:02.761Z,101430.78
2022-08-03T14:05:32.144Z,101437.13
2022-08-03T14:08:04.317Z,101437.16
2022-08-03T14:10:31.824Z,101441.91
2022-08-03T14:12:58.210Z,101436.88
2022-08-03T14:15:24.599Z,101437.31
2022-08-03T14:17:51.215Z,101432.22
2022-08-03T14:20:36.348Z,101430.00
2022-08-03T14:23:04.242Z,101433.28
2022-08-03T14:25:30.697Z,101429.03
2022-08-03T14:28:09.806Z,101421.56
2022-08-03T14:30:36.551Z,101431.13
2022-08-03T14:33:02.988Z,101428.44
2022-08-03T14:35:29.475Z,101425.47
2022-08-03T14:37:55.849Z,101425.63
2022-08-03T14:40:22.389Z,101422.97
2022-08-03T14:42:48.901Z,101419.91
2022-08-03T14:45:20.274Z,101405.78
2022-08-03T14:50:29.666Z,101411.22
2022-08-03T14:50:42.880Z,101405.00
2022-08-03T14:53:12.274Z,101402.47
2022-08-03T14:55:50.482Z,101404.00
2022-08-03T14:58:19.801Z,101416.25
2022-08-03T15:00:48.869Z,101403.34
2022-08-03T15:03:16.801Z,101409.50
2022-08-03T15:05:44.309Z,101401.88
2022-08-03T15:08:10.691Z,101396.34
2022-08-03T15:10:44.487Z,101390.81
2022-08-03T15:13:12.944Z,101399.06
2022-08-03T15:15:39.428Z,101393.13
2022-08-03T15:18:05.938Z,101393.50
2022-08-03T15:20:43.849Z,101400.41
2022-08-03T15:23:12.329Z,101400.41
2022-08-03T15:26:28.841Z,101397.34
2022-08-03T15:28:25.110Z,101391.38
2022-08-03T15:30:57.338Z,101393.69
2022-08-03T15:33:23.718Z,101384.50
2022-08-03T15:35:50.181Z,101395.56
2022-08-03T15:38:17.187Z,101388.28
2022-08-03T15:40:43.622Z,101389.09
2022-08-03T15:43:10.038Z,101405.56
2022-08-03T15:45:37.139Z,101393.56
2022-08-03T15:48:05.351Z,101392.47
2022-08-03T15:50:31.697Z,101395.81
2022-08-03T15:52:58.093Z,101394.50
2022-08-03T15:55:24.490Z,101401.66
2022-08-03T15:58:59.647Z,101398.13
2022-08-03T16:00:38.056Z,101388.69
2022-08-03T16:03:04.644Z,101402.75
2022-08-03T16:05:31.044Z,101397.91
2022-08-03T16:08:02.990Z,101397.34
2022-08-03T16:10:30.856Z,101393.28
2022-08-03T16:12:57.450Z,101396.94
2022-08-03T16:15:23.829Z,101386.66
2022-08-03T16:17:50.228Z,101390.84
2022-08-03T16:20:31.245Z,101397.00
2022-08-03T16:23:09.141Z,101391.75
2022-08-03T16:25:38.080Z,101388.34
2022-08-03T16:28:07.771Z,101391.28
2022-08-03T16:30:39.841Z,101387.06
2022-08-03T16:33:06.256Z,101384.88
2022-08-03T16:35:32.793Z,101382.50
2022-08-03T16:37:59.197Z,101384.75
2022-08-03T16:40:26.155Z,101378.88
2022-08-03T16:42:52.559Z,101382.72
2022-08-03T16:45:18.977Z,101378.75
2022-08-03T16:47:45.553Z,101385.53
2022-08-03T16:50:18.947Z,101380.97
2022-08-03T16:52:46.902Z,101386.59
2022-08-03T16:55:15.609Z,101389.50
2022-08-03T16:57:59.069Z,101386.72
2022-08-03T17:00:33.237Z,101377.44
2022-08-03T17:03:03.943Z,101376.81
2022-08-03T17:05:43.905Z,101377.47
2022-08-03T17:08:14.366Z,101381.63
2022-08-03T17:10:44.581Z,101379.25
2022-08-03T17:13:12.704Z,101378.47
2022-08-03T17:16:03.023Z,101380.72
2022-08-03T17:18:38.809Z,101381.03
2022-08-03T17:21:10.304Z,101376.94
2022-08-03T17:23:56.438Z,101386.69
2022-08-03T17:26:30.395Z,101381.03
2022-08-03T17:29:11.172Z,101379.81
2022-08-03T17:31:48.423Z,101374.63
2022-08-03T17:34:16.364Z,101381.00
2022-08-03T17:39:56.841Z,101384.59
2022-08-03T17:42:29.258Z,101381.31
2022-08-03T17:45:01.588Z,101391.06
2022-08-03T17:47:41.355Z,101383.25
2022-08-03T17:50:24.649Z,101390.09
2022-08-03T17:53:07.248Z,101387.91
2022-08-03T17:55:54.863Z,101398.69
2022-08-03T17:59:08.976Z,101398.09
2022-08-03T18:02:12.212Z,101392.69
2022-08-03T18:04:55.229Z,101390.66
2022-08-03T18:07:25.520Z,101387.78
2022-08-03T18:10:11.238Z,101401.28
2022-08-03T18:13:10.597Z,101392.72
2022-08-03T18:15:46.046Z,101397.59
2022-08-03T18:18:15.690Z,101390.31
2022-08-03T18:20:45.645Z,101390.00
2022-08-03T18:23:24.922Z,101396.34
2022-08-03T18:26:01.704Z,101390.63
2022-08-03T18:28:28.977Z,101394.59
2022-08-03T18:30:57.166Z,101403.63
2022-08-03T18:34:16.705Z,101400.13
2022-08-03T18:36:17.980Z,101389.63
2022-08-03T18:38:49.742Z,101395.91
2022-08-03T18:41:22.104Z,101394.13
2022-08-03T18:44:06.627Z,101390.13
2022-08-03T18:46:45.731Z,101387.22
2022-08-03T18:49:24.047Z,101388.88
2022-08-03T18:52:02.481Z,101391.47
2022-08-03T18:54:59.037Z,101393.94
2022-08-03T18:57:38.107Z,101394.69
2022-08-03T19:00:06.773Z,101386.97
2022-08-03T19:03:10.844Z,101393.19
2022-08-03T19:06:01.938Z,101389.28
2022-08-03T19:08:54.734Z,101392.78
2022-08-03T19:12:14.017Z,101395.50
2022-08-03T19:14:34.601Z,101395.81
2022-08-03T19:17:11.795Z,101402.00
2022-08-03T19:19:44.872Z,101400.41
2022-08-03T19:22:16.318Z,101402.28
2022-08-03T19:24:45.706Z,101403.16
2022-08-03T19:27:12.768Z,101401.63
2022-08-03T19:30:00.140Z,101402.47
2022-08-03T19:32:30.529Z,101402.19
2022-08-03T19:34:59.461Z,101403.44
2022-08-03T19:37:26.169Z,101402.56
2022-08-03T19:40:05.766Z,101404.59
2022-08-03T19:42:42.802Z,101411.19
2022-08-03T19:45:14.656Z,101420.75
2022-08-03T19:47:58.444Z,101413.97
2022-08-03T19:50:25.034Z,101415.75
2022-08-03T19:52:52.751Z,101414.53
2022-08-03T19:55:19.480Z,101411.69
2022-08-03T19:57:49.327Z,101411.72
2022-08-03T20:00:17.356Z,101409.13
2022-08-03T20:02:45.125Z,101415.59
2022-08-03T20:05:14.779Z,101416.19
2022-08-03T20:07:47.459Z,101414.72
2022-08-03T20:10:16.480Z,101414.81
2022-08-03T20:12:44.139Z,101414.06
2022-08-03T20:15:10.939Z,101415.75
2022-08-03T20:17:55.440Z,101415.25
2022-08-03T20:23:18.313Z,101413.84
2022-08-03T20:25:57.335Z,101404.00
2022-08-03T20:28:28.485Z,101409.16
2022-08-03T20:30:56.774Z,101406.78
2022-08-03T20:33:34.585Z,101408.41
2022-08-03T20:36:11.370Z,101408.47
2022-08-03T20:38:43.699Z,101404.75
2022-08-03T20:41:13.801Z,101408.00
2022-08-03T20:43:41.138Z,101412.28
2022-08-03T20:46:29.202Z,101416.06
2022-08-03T20:48:55.298Z,101409.66
2022-08-03T20:51:50.425Z,101415.78
2022-08-03T20:54:29.768Z,101408.63
2022-08-03T20:56:56.488Z,101410.25
2022-08-03T20:59:23.488Z,101406.78
2022-08-03T21:01:50.529Z,101397.97
2022-08-03T21:04:20.863Z,101395.06
2022-08-03T21:06:53.476Z,101395.34
2022-08-03T21:09:39.816Z,101391.34
2022-08-03T21:12:12.032Z,101398.56
2022-08-03T21:13:03.878Z,101418.84
2022-08-03T21:14:49.063Z,101392.41
2022-08-03T21:17:38.327Z,101384.13
2022-08-03T21:20:11.658Z,101390.00
2022-08-03T21:22:39.675Z,101386.28
2022-08-03T21:25:08.041Z,101387.31
2022-08-03T21:27:35.846Z,101378.75
2022-08-03T21:30:06.461Z,101373.41
2022-08-03T21:32:33.560Z,101379.00
2022-08-03T21:35:00.263Z,101382.72
2022-08-03T21:37:28.325Z,101381.66
2022-08-03T21:39:55.631Z,101375.25
2022-08-03T21:42:23.023Z,101374.47
2022-08-03T21:44:53.576Z,101366.69
2022-08-03T21:47:22.773Z,101362.97
2022-08-03T21:50:06.136Z,101358.38
2022-08-03T21:52:40.067Z,101366.34
2022-08-03T21:55:07.366Z,101362.88
2022-08-03T21:57:34.823Z,101363.13
2022-08-03T22:00:11.666Z,101357.47
2022-08-03T22:02:39.753Z,101363.06
2022-08-03T22:05:09.482Z,101356.88
2022-08-03T22:07:42.889Z,101363.00
2022-08-03T22:10:10.552Z,101361.09
2022-08-03T22:12:38.121Z,101364.03
2022-08-03T22:15:08.546Z,101362.94
2022-08-03T22:17:55.106Z,101359.47
2022-08-03T22:20:23.260Z,101362.91
2022-08-03T22:22:55.979Z,101368.75
2022-08-03T22:25:28.088Z,101365.28
2022-08-03T22:27:55.022Z,101359.09
2022-08-03T22:30:21.637Z,101358.28
2022-08-03T22:32:51.828Z,101357.97
2022-08-03T22:35:20.220Z,101365.69
2022-08-03T22:37:49.468Z,101365.41
2022-08-03T22:40:17.170Z,101360.81
2022-08-03T22:42:45.516Z,101366.91
2022-08-03T22:45:45.868Z,101366.34
2022-08-03T22:47:59.796Z,101363.06
2022-08-03T22:50:31.715Z,101359.78
2022-08-03T22:53:00.135Z,101356.81
2022-08-03T22:55:26.951Z,101354.38
2022-08-03T22:57:55.802Z,101354.63
2022-08-03T23:00:23.100Z,101360.72
2022-08-03T23:02:51.872Z,101353.81
2022-08-03T23:06:02.272Z,101345.78
2022-08-03T23:08:14.940Z,101359.06
2022-08-03T23:10:46.730Z,101351.03
2022-08-03T23:13:16.333Z,101350.72
2022-08-03T23:15:58.222Z,101341.41
2022-08-03T23:18:28.023Z,101355.16
2022-08-03T23:20:58.036Z,101344.50
2022-08-03T23:23:24.392Z,101341.53
2022-08-03T23:25:51.866Z,101346.56
2022-08-03T23:28:18.834Z,101339.59
2022-08-03T23:30:45.919Z,101340.91
2022-08-03T23:33:14.739Z,101352.00
2022-08-03T23:36:22.581Z,101351.22
2022-08-03T23:38:34.091Z,101342.44
2022-08-03T23:41:02.204Z,101345.91
2022-08-03T23:43:50.829Z,101341.66
2022-08-03T23:46:21.931Z,101335.47
2022-08-03T23:48:48.338Z,101345.31
2022-08-03T23:51:38.817Z,101330.38
2022-08-03T23:54:23.889Z,101339.81
2022-08-03T23:57:27.643Z,101344.78
